createdAt,value
2019-04-11T00:02:24.741Z,100566.77
2019-04-11T00:04:59.234Z,100563.61
2019-04-11T00:07:32.102Z,100563.48
2019-04-11T00:10:06.226Z,100564.03
2019-04-11T00:12:38.851Z,100562.45
2019-04-11T00:15:10.948Z,100569.02
2019-04-11T00:17:43.878Z,100564.30
2019-04-11T00:20:16.059Z,100568.92
2019-04-11T00:22:48.024Z,100572.56
2019-04-11T00:25:19.989Z,100569.88
2019-04-11T00:27:53.058Z,100574.32
2019-04-11T00:30:26.173Z,100571.97
2019-04-11T00:32:58.611Z,100569.33
2019-04-11T00:35:31.423Z,100571.27
2019-04-11T00:38:03.559Z,100571.16
2019-04-11T00:40:35.590Z,100564.53
2019-04-11T00:43:07.641Z,100570.77
2019-04-11T00:45:40.780Z,100565.80
2019-04-11T00:48:13.293Z,100565.98
2019-04-11T00:50:45.527Z,100564.39
2019-04-11T00:53:18.913Z,100566.72
2019-04-11T00:55:51.503Z,100562.59
2019-04-11T00:58:25.567Z,100568.90
2019-04-11T01:00:59.656Z,100564.72
2019-04-11T01:03:32.218Z,100559.00
2019-04-11T01:06:04.148Z,100557.45
2019-04-11T01:08:36.065Z,100559.63
2019-04-11T01:11:09.894Z,100561.89
2019-04-11T01:13:50.176Z,100561.15
2019-04-11T01:16:38.907Z,100559.80
2019-04-11T01:19:11.562Z,100566.41
2019-04-11T01:21:44.507Z,100566.94
2019-04-11T01:24:17.730Z,100569.71
2019-04-11T01:26:49.847Z,100562.91
2019-04-11T01:29:22.993Z,100564.26
2019-04-11T01:32:02.138Z,100552.81
2019-04-11T01:34:34.989Z,100555.37
2019-04-11T01:37:07.747Z,100552.88
2019-04-11T01:39:57.256Z,100562.28
2019-04-11T01:42:31.965Z,100560.13
2019-04-11T01:45:05.329Z,100560.02
2019-04-11T01:48:05.368Z,100555.53
2019-04-11T01:50:37.396Z,100551.75
2019-04-11T01:53:09.359Z,100554.30
2019-04-11T01:55:41.393Z,100551.27
2019-04-11T01:58:14.233Z,100545.17
2019-04-11T02:01:08.365Z,100546.41
2019-04-11T02:04:00.739Z,100546.24
2019-04-11T02:06:34.017Z,100539.83
2019-04-11T02:09:10.140Z,100548.34
2019-04-11T02:11:42.162Z,100547.42
2019-04-11T02:14:17.739Z,100543.68
2019-04-11T02:16:47.809Z,100541.52
2019-04-11T02:19:20.384Z,100549.42
2019-04-11T02:21:54.504Z,100548.95
2019-04-11T02:24:52.238Z,100543.91
2019-04-11T02:27:27.401Z,100546.58
2019-04-11T02:30:01.209Z,100552.84
2019-04-11T02:32:37.008Z,100552.59
2019-04-11T02:35:10.990Z,100550.54
2019-04-11T02:37:47.590Z,100550.73
2019-04-11T02:40:20.160Z,100546.70
2019-04-11T02:42:52.598Z,100546.38
2019-04-11T02:45:41.989Z,100551.45
2019-04-11T02:47:59.381Z,100549.88
2019-04-11T02:50:32.162Z,100552.70
2019-04-11T02:53:04.993Z,100557.87
2019-04-11T02:55:38.148Z,100555.84
2019-04-11T02:58:10.596Z,100556.91
2019-04-11T03:00:45.497Z,100557.18
2019-04-11T03:03:20.967Z,100562.63
2019-04-11T03:05:53.431Z,100564.84
2019-04-11T03:08:28.320Z,100565.42
2019-04-11T03:11:03.044Z,100566.59
2019-04-11T03:13:35.946Z,100558.92
2019-04-11T03:16:24.815Z,100556.08
2019-04-11T03:18:59.391Z,100562.23
2019-04-11T03:21:21.745Z,100559.98
2019-04-11T03:23:51.440Z,100555.81
2019-04-11T03:26:25.028Z,100557.75
2019-04-11T03:28:58.330Z,100557.06
2019-04-11T03:32:13.767Z,100553.89
2019-04-11T03:35:03.139Z,100548.27
2019-04-11T03:39:32.672Z,100565.02
2019-04-11T03:42:07.989Z,100560.52
2019-04-11T03:44:28.665Z,100556.08
2019-04-11T03:47:12.714Z,100558.81
2019-04-11T03:49:41.912Z,100563.26
2019-04-11T03:52:08.193Z,100569.31
2019-04-11T03:54:42.455Z,100563.02
2019-04-11T03:57:15.720Z,100564.02
2019-04-11T03:59:48.473Z,100564.68
2019-04-11T04:02:22.352Z,100556.91
2019-04-11T04:04:55.334Z,100561.48
2019-04-11T04:07:27.817Z,100560.78
2019-04-11T04:10:02.739Z,100559.12
2019-04-11T04:12:37.764Z,100559.42
2019-04-11T04:15:37.575Z,100560.72
2019-04-11T04:18:16.557Z,100551.95
2019-04-11T04:21:09.189Z,100554.09
2019-04-11T04:23:47.049Z,100557.12
2019-04-11T04:26:19.687Z,100549.32
2019-04-11T04:28:53.427Z,100546.72
2019-04-11T04:31:26.737Z,100551.63
2019-04-11T04:33:59.627Z,100547.34
2019-04-11T04:36:33.056Z,100552.84
2019-04-11T04:39:06.562Z,100552.95
2019-04-11T04:41:47.592Z,100553.94
2019-04-11T04:44:19.036Z,100558.98
2019-04-11T04:47:00.086Z,100553.91
2019-04-11T04:49:25.274Z,100555.74
2019-04-11T04:51:57.445Z,100551.25
2019-04-11T04:54:30.848Z,100554.09
2019-04-11T04:57:04.688Z,100553.99
2019-04-11T04:59:38.380Z,100547.17
2019-04-11T05:02:12.817Z,100545.55
2019-04-11T05:04:45.926Z,100554.83
2019-04-11T05:07:19.463Z,100555.68
2019-04-11T05:09:51.906Z,100543.94
2019-04-11T05:12:24.150Z,100545.41
2019-04-11T05:14:56.198Z,100543.41
2019-04-11T05:17:28.986Z,100547.55
2019-04-11T05:20:03.014Z,100554.76
2019-04-11T05:22:35.295Z,100555.45
2019-04-11T05:25:08.412Z,100551.00
2019-04-11T05:27:40.535Z,100555.63
2019-04-11T05:30:12.703Z,100560.54
2019-04-11T05:32:45.672Z,100556.63
2019-04-11T05:35:18.511Z,100557.09
2019-04-11T05:37:51.470Z,100565.25
2019-04-11T05:40:23.978Z,100569.53
2019-04-11T05:42:55.977Z,100570.14
2019-04-11T05:45:29.794Z,100567.77
2019-04-11T05:48:03.281Z,100567.54
2019-04-11T05:50:38.202Z,100567.54
2019-04-11T05:53:10.393Z,100568.93
2019-04-11T05:55:45.443Z,100571.39
2019-04-11T05:58:17.715Z,100570.00
2019-04-11T06:01:01.236Z,100577.41
2019-04-11T06:03:34.309Z,100582.01
2019-04-11T06:06:31.919Z,100584.12
2019-04-11T06:09:10.305Z,100584.06
2019-04-11T06:11:55.780Z,100594.02
2019-04-11T06:14:31.000Z,100596.31
2019-04-11T06:17:07.288Z,100596.92
2019-04-11T06:19:57.635Z,100599.15
2019-04-11T06:22:29.820Z,100601.92
2019-04-11T06:25:33.265Z,100605.03
2019-04-11T06:28:30.829Z,100612.02
2019-04-11T06:31:22.024Z,100613.84
2019-04-11T06:34:01.470Z,100609.80
2019-04-11T06:36:58.370Z,100609.41
2019-04-11T06:39:45.115Z,100610.54
2019-04-11T06:42:49.670Z,100619.41
2019-04-11T06:45:40.081Z,100624.16
2019-04-11T06:48:49.650Z,100624.64
2019-04-11T06:51:34.272Z,100629.22
2019-04-11T06:54:23.200Z,100632.69
2019-04-11T06:56:55.529Z,100633.13
2019-04-11T06:59:32.386Z,100635.80
2019-04-11T07:02:16.406Z,100639.55
2019-04-11T07:04:47.200Z,100641.77
2019-04-11T07:07:20.542Z,100648.43
2019-04-11T07:09:55.986Z,100649.50
2019-04-11T07:12:55.617Z,100649.34
2019-04-11T07:15:39.797Z,100640.00
2019-04-11T07:18:31.215Z,100647.61
2019-04-11T07:21:06.348Z,100646.60
2019-04-11T07:23:57.480Z,100656.37
2019-04-11T07:26:41.753Z,100654.02
2019-04-11T07:29:33.726Z,100656.30
2019-04-11T07:32:17.951Z,100658.73
2019-04-11T07:35:08.646Z,100653.05
2019-04-11T07:37:45.236Z,100649.61
2019-04-11T07:40:54.684Z,100651.06
2019-04-11T07:43:29.360Z,100654.34
2019-04-11T07:46:21.941Z,100647.69
2019-04-11T07:49:03.767Z,100650.89
2019-04-11T07:51:38.612Z,100654.63
2019-04-11T07:54:30.347Z,100651.73
2019-04-11T07:57:28.166Z,100653.55
2019-04-11T08:00:20.510Z,100657.02
2019-04-11T08:03:10.516Z,100651.67
2019-04-11T08:06:00.887Z,100654.73
2019-04-11T08:09:10.258Z,100649.18
2019-04-11T08:11:49.836Z,100656.45
2019-04-11T08:14:48.873Z,100653.73
2019-04-11T08:17:35.731Z,100655.10
2019-04-11T08:20:19.397Z,100656.25
2019-04-11T08:23:03.576Z,100649.53
2019-04-11T08:25:50.321Z,100650.99
2019-04-11T08:28:24.833Z,100655.19
2019-04-11T08:31:19.389Z,100650.43
2019-04-11T08:33:55.045Z,100656.42
2019-04-11T08:36:38.006Z,100652.58
2019-04-11T08:39:18.123Z,100656.98
2019-04-11T08:42:12.843Z,100654.73
2019-04-11T08:44:48.022Z,100661.65
2019-04-11T08:47:22.422Z,100662.61
2019-04-11T08:49:58.437Z,100663.64
2019-04-11T08:52:40.400Z,100658.66
2019-04-11T08:55:17.308Z,100662.39
2019-04-11T08:57:56.139Z,100663.31
2019-04-11T09:00:40.201Z,100665.54
2019-04-11T09:03:37.787Z,100670.03
2019-04-11T09:06:13.033Z,100663.77
2019-04-11T09:09:02.991Z,100669.58
2019-04-11T09:11:46.822Z,100666.92
2019-04-11T09:14:36.555Z,100670.60
2019-04-11T09:17:16.808Z,100668.19
2019-04-11T09:20:07.653Z,100678.00
2019-04-11T09:22:47.026Z,100674.63
2019-04-11T09:25:37.046Z,100672.26
2019-04-11T09:28:15.861Z,100677.67
2019-04-11T09:31:17.049Z,100669.43
2019-04-11T09:34:14.410Z,100677.30
2019-04-11T09:36:58.382Z,100670.72
2019-04-11T09:40:01.744Z,100677.46
2019-04-11T09:42:48.873Z,100675.27
2019-04-11T09:45:52.580Z,100673.73
2019-04-11T09:49:04.402Z,100674.77
2019-04-11T09:51:49.896Z,100672.87
2019-04-11T09:54:28.177Z,100670.19
2019-04-11T09:57:32.397Z,100677.64
2019-04-11T10:00:24.283Z,100673.47
2019-04-11T10:03:15.456Z,100675.14
2019-04-11T10:05:56.784Z,100670.15
2019-04-11T10:08:39.682Z,100670.16
2019-04-11T10:11:30.367Z,100670.00
2019-04-11T10:14:09.416Z,100669.72
2019-04-11T10:17:00.242Z,100664.77
2019-04-11T10:19:40.240Z,100666.64
2019-04-11T10:22:49.458Z,100659.42
2019-04-11T10:25:33.284Z,100656.94
2019-04-11T10:28:22.516Z,100653.37
2019-04-11T10:31:14.694Z,100648.26
2019-04-11T10:34:06.058Z,100634.96
2019-04-11T10:36:43.529Z,100628.36
2019-04-11T10:39:33.398Z,100630.06
2019-04-11T10:42:08.671Z,100622.30
2019-04-11T10:44:51.644Z,100622.30
2019-04-11T10:47:25.245Z,100615.01
2019-04-11T10:50:19.592Z,100619.40
2019-04-11T10:52:58.411Z,100613.86
2019-04-11T10:55:58.590Z,100610.88
2019-04-11T10:58:37.230Z,100609.75
2019-04-11T11:01:26.781Z,100605.42
2019-04-11T11:04:07.809Z,100606.45
2019-04-11T11:06:39.975Z,100604.11
2019-04-11T11:09:17.780Z,100602.16
2019-04-11T11:12:08.784Z,100587.89
2019-04-11T11:15:09.417Z,100586.83
2019-04-11T11:18:46.375Z,100582.31
2019-04-11T11:20:55.759Z,100574.11
2019-04-11T11:23:43.267Z,100566.96
2019-04-11T11:26:24.810Z,100568.02
2019-04-11T11:29:22.265Z,100564.14
2019-04-11T11:32:03.191Z,100560.11
2019-04-11T11:34:42.660Z,100555.73
2019-04-11T11:37:33.336Z,100552.92
2019-04-11T11:40:44.713Z,100546.64
2019-04-11T11:43:19.237Z,100538.02
2019-04-11T11:46:19.641Z,100535.21
2019-04-11T11:49:14.280Z,100527.38
2019-04-11T11:52:11.109Z,100527.38
2019-04-11T11:54:49.737Z,100523.01
2019-04-11T11:57:29.082Z,100519.14
2019-04-11T12:00:13.138Z,100517.26
2019-04-11T12:02:55.464Z,100517.26
2019-04-11T12:05:31.174Z,100522.46
2019-04-11T12:08:22.301Z,100510.74
2019-04-11T12:11:01.900Z,100510.02
2019-04-11T12:13:51.598Z,100509.13
2019-04-11T12:16:49.753Z,100500.38
2019-04-11T12:19:26.902Z,100498.47
2019-04-11T12:21:59.969Z,100508.98
2019-04-11T12:24:36.504Z,100500.66
2019-04-11T12:27:27.427Z,100496.20
2019-04-11T12:30:20.842Z,100495.86
2019-04-11T12:33:13.050Z,100494.91
2019-04-11T12:36:10.217Z,100483.88
2019-04-11T12:39:00.049Z,100489.25
2019-04-11T12:41:49.879Z,100480.61
2019-04-11T12:44:43.269Z,100484.27
2019-04-11T12:47:38.310Z,100477.20
2019-04-11T12:50:30.548Z,100476.45
2019-04-11T12:53:04.698Z,100471.53
2019-04-11T12:55:56.024Z,100469.09
2019-04-11T12:58:58.876Z,100468.48
2019-04-11T13:01:55.913Z,100462.33
2019-04-11T13:04:30.131Z,100462.48
2019-04-11T13:07:33.161Z,100455.92
2019-04-11T13:10:30.787Z,100447.86
2019-04-11T13:13:24.867Z,100447.52
2019-04-11T13:16:15.709Z,100443.36
2019-04-11T13:19:06.479Z,100445.17
2019-04-11T13:21:57.494Z,100440.39
2019-04-11T13:24:46.721Z,100432.52
2019-04-11T13:27:24.298Z,100443.28
2019-04-11T13:30:14.420Z,100429.77
2019-04-11T13:33:11.597Z,100432.47
2019-04-11T13:36:05.298Z,100430.06
2019-04-11T13:38:41.835Z,100429.56
2019-04-11T13:41:31.586Z,100429.52
2019-04-11T13:44:21.852Z,100427.14
2019-04-11T13:47:12.619Z,100430.33
2019-04-11T13:49:56.331Z,100424.34
2019-04-11T13:52:45.962Z,100423.92
2019-04-11T13:55:25.782Z,100424.68
2019-04-11T13:58:16.581Z,100422.52
2019-04-11T14:00:52.545Z,100413.23
2019-04-11T14:03:49.217Z,100413.41
2019-04-11T14:06:33.329Z,100400.10
2019-04-11T14:09:19.554Z,100408.39
2019-04-11T14:11:56.298Z,100408.23
2019-04-11T14:14:30.156Z,100406.75
2019-04-11T14:17:13.140Z,100406.27
2019-04-11T14:20:08.843Z,100405.45
2019-04-11T14:23:02.333Z,100400.30
2019-04-11T14:25:56.284Z,100402.81
2019-04-11T14:28:32.651Z,100398.30
2019-04-11T14:31:16.364Z,100400.16
2019-04-11T14:33:51.684Z,100386.34
2019-04-11T14:36:41.481Z,100394.80
2019-04-11T14:39:15.544Z,100398.34
2019-04-11T14:42:06.795Z,100392.90
2019-04-11T14:44:39.538Z,100391.41
2019-04-11T14:47:48.483Z,100395.23
2019-04-11T14:50:20.944Z,100394.23
2019-04-11T14:53:17.481Z,100400.91
2019-04-11T14:55:51.902Z,100402.38
2019-04-11T14:58:42.808Z,100400.63
2019-04-11T15:01:16.410Z,100391.81
2019-04-11T15:04:19.972Z,100394.98
2019-04-11T15:06:52.901Z,100393.46
2019-04-11T15:09:40.177Z,100387.97
2019-04-11T15:12:17.552Z,100388.28
2019-04-11T15:15:22.295Z,100387.62
2019-04-11T15:17:58.047Z,100390.61
2019-04-11T15:20:55.379Z,100390.80
2019-04-11T15:23:29.826Z,100385.16
2019-04-11T15:26:23.610Z,100395.83
2019-04-11T15:29:20.461Z,100390.06
2019-04-11T15:32:10.227Z,100392.80
2019-04-11T15:34:52.890Z,100393.75
2019-04-11T15:37:43.748Z,100395.76
2019-04-11T15:40:22.462Z,100394.33
2019-04-11T15:43:22.231Z,100399.97
2019-04-11T15:46:11.892Z,100397.50
2019-04-11T15:49:02.662Z,100409.89
2019-04-11T15:51:37.749Z,100402.77
2019-04-11T15:54:17.508Z,100410.55
2019-04-11T15:56:55.331Z,100408.73
2019-04-11T15:59:54.169Z,100418.58
2019-04-11T16:02:53.611Z,100414.28
2019-04-11T16:05:50.732Z,100415.97
2019-04-11T16:08:45.115Z,100416.07
2019-04-11T16:11:25.453Z,100413.39
2019-04-11T16:14:09.450Z,100412.55
2019-04-11T16:16:59.095Z,100419.91
2019-04-11T16:20:01.743Z,100415.94
2019-04-11T16:22:56.075Z,100420.03
2019-04-11T16:25:29.271Z,100421.38
2019-04-11T16:28:19.402Z,100421.02
2019-04-11T16:30:57.780Z,100426.95
2019-04-11T16:33:48.597Z,100427.34
2019-04-11T16:36:26.974Z,100431.69
2019-04-11T16:39:32.985Z,100424.97
2019-04-11T16:42:09.840Z,100428.41
2019-04-11T16:45:03.504Z,100432.41
2019-04-11T16:47:45.765Z,100427.20
2019-04-11T16:50:17.723Z,100431.81
2019-04-11T16:52:49.722Z,100433.59
2019-04-11T16:55:21.635Z,100424.34
2019-04-11T16:57:53.658Z,100425.86
2019-04-11T17:00:25.710Z,100422.73
2019-04-11T17:02:57.818Z,100423.81
2019-04-11T17:05:29.813Z,100423.14
2019-04-11T17:08:33.885Z,100421.36
2019-04-11T17:11:10.659Z,100421.27
2019-04-11T17:13:42.942Z,100421.12
2019-04-11T17:16:17.086Z,100419.38
2019-04-11T17:18:49.073Z,100422.56
2019-04-11T17:21:23.108Z,100423.60
2019-04-11T17:23:54.684Z,100413.82
2019-04-11T17:26:26.603Z,100412.57
2019-04-11T17:28:58.589Z,100412.77
2019-04-11T17:31:30.510Z,100408.77
2019-04-11T17:34:05.441Z,100409.28
2019-04-11T17:36:36.238Z,100410.45
2019-04-11T17:39:09.077Z,100406.72
2019-04-11T17:41:42.098Z,100418.98
2019-04-11T17:44:16.091Z,100421.19
2019-04-11T17:46:48.092Z,100425.47
2019-04-11T17:49:20.101Z,100425.34
2019-04-11T17:51:56.008Z,100425.26
2019-04-11T17:54:25.867Z,100430.83
2019-04-11T17:56:59.112Z,100427.11
2019-04-11T17:59:31.530Z,100435.27
2019-04-11T18:02:05.129Z,100436.41
2019-04-11T18:04:37.103Z,100439.88
2019-04-11T18:07:09.105Z,100433.23
2019-04-11T18:09:41.227Z,100432.47
2019-04-11T18:12:13.591Z,100427.99
2019-04-11T18:14:45.620Z,100433.37
2019-04-11T18:17:17.670Z,100427.31
2019-04-11T18:19:51.024Z,100424.57
2019-04-11T18:22:23.189Z,100430.19
2019-04-11T18:24:55.153Z,100430.39
2019-04-11T18:27:27.082Z,100433.17
2019-04-11T18:29:59.082Z,100437.17
2019-04-11T18:32:32.374Z,100438.31
2019-04-11T18:35:04.658Z,100436.81
2019-04-11T18:37:38.382Z,100436.56
2019-04-11T18:40:10.854Z,100443.25
2019-04-11T18:42:42.997Z,100444.09
2019-04-11T18:45:15.941Z,100440.80
2019-04-11T18:47:47.948Z,100444.45
2019-04-11T18:50:23.029Z,100439.07
2019-04-11T18:52:59.224Z,100439.09
2019-04-11T18:55:29.892Z,100438.62
2019-04-11T18:58:04.636Z,100443.66
2019-04-11T19:00:35.807Z,100438.19
2019-04-11T19:03:10.399Z,100430.80
2019-04-11T19:05:43.615Z,100436.89
2019-04-11T19:08:15.715Z,100444.79
2019-04-11T19:10:47.835Z,100443.46
2019-04-11T19:13:19.902Z,100448.49
2019-04-11T19:15:51.847Z,100448.37
2019-04-11T19:18:23.949Z,100456.15
2019-04-11T19:20:55.924Z,100464.41
2019-04-11T19:23:28.657Z,100468.45
2019-04-11T19:26:00.688Z,100466.31
2019-04-11T19:28:32.684Z,100471.30
2019-04-11T19:31:04.712Z,100467.59
2019-04-11T19:33:36.711Z,100473.55
2019-04-11T19:36:10.131Z,100477.59
2019-04-11T19:38:43.308Z,100480.53
2019-04-11T19:41:17.956Z,100475.84
2019-04-11T19:43:49.902Z,100480.91
2019-04-11T19:46:21.980Z,100488.41
2019-04-11T19:48:57.092Z,100488.14
2019-04-11T19:51:29.494Z,100489.05
2019-04-11T19:54:03.377Z,100493.40
2019-04-11T19:56:40.738Z,100501.00
2019-04-11T19:59:12.838Z,100497.88
2019-04-11T20:01:44.863Z,100512.94
2019-04-11T20:04:16.816Z,100514.35
2019-04-11T20:06:48.819Z,100519.22
2019-04-11T20:09:20.880Z,100522.28
2019-04-11T20:11:54.725Z,100518.91
2019-04-11T20:14:27.316Z,100512.48
2019-04-11T20:17:01.588Z,100525.21
2019-04-11T20:19:33.624Z,100526.52
2019-04-11T20:22:08.357Z,100527.05
2019-04-11T20:24:40.339Z,100527.64
2019-04-11T20:27:12.280Z,100522.02
2019-04-11T20:29:44.299Z,100522.62
2019-04-11T20:32:16.276Z,100522.45
2019-04-11T20:34:48.765Z,100523.27
2019-04-11T20:37:20.749Z,100519.80
2019-04-11T20:39:52.935Z,100517.23
2019-04-11T20:42:26.341Z,100519.27
2019-04-11T20:44:59.309Z,100516.30
2019-04-11T20:47:33.243Z,100522.73
2019-04-11T20:50:07.547Z,100518.30
2019-04-11T20:52:41.563Z,100523.92
2019-04-11T20:55:13.864Z,100533.55
2019-04-11T20:57:47.344Z,100533.17
2019-04-11T21:00:20.064Z,100540.73
2019-04-11T21:02:52.087Z,100536.30
2019-04-11T21:05:24.099Z,100536.58
2019-04-11T21:08:02.669Z,100539.28
2019-04-11T21:10:34.130Z,100540.59
2019-04-11T21:13:07.707Z,100539.11
2019-04-11T21:15:41.135Z,100534.89
2019-04-11T21:18:13.423Z,100532.88
2019-04-11T21:20:47.069Z,100537.44
2019-04-11T21:23:24.583Z,100533.05
2019-04-11T21:25:53.146Z,100535.02
2019-04-11T21:28:25.230Z,100527.64
2019-04-11T21:30:59.854Z,100532.36
2019-04-11T21:33:34.013Z,100528.45
2019-04-11T21:36:05.471Z,100529.00
2019-04-11T21:38:37.620Z,100531.86
2019-04-11T21:41:09.693Z,100534.68
2019-04-11T21:43:41.724Z,100536.06
2019-04-11T21:46:15.391Z,100533.71
2019-04-11T21:48:47.549Z,100527.56
2019-04-11T21:51:19.552Z,100522.35
2019-04-11T21:53:51.529Z,100525.55
2019-04-11T21:56:23.547Z,100526.20
2019-04-11T21:58:55.512Z,100531.00
2019-04-11T22:01:27.983Z,100524.05
2019-04-11T22:04:00.940Z,100519.97
2019-04-11T22:06:33.027Z,100519.94
2019-04-11T22:09:06.609Z,100515.28
2019-04-11T22:11:39.975Z,100453.33
2019-04-11T22:14:12.346Z,100515.47
2019-04-11T22:16:45.281Z,100516.31
2019-04-11T22:19:17.395Z,100521.34
2019-04-11T22:21:49.522Z,100524.34
2019-04-11T22:24:23.205Z,100524.61
2019-04-11T22:26:55.279Z,100523.50
2019-04-11T22:29:27.226Z,100520.68
2019-04-11T22:31:59.344Z,100523.30
2019-04-11T22:34:43.419Z,100529.05
2019-04-11T22:37:15.401Z,100529.70
2019-04-11T22:39:47.400Z,100521.63
2019-04-11T22:42:19.508Z,100523.65
2019-04-11T22:44:51.491Z,100524.77
2019-04-11T22:47:23.872Z,100532.97
2019-04-11T22:49:55.930Z,100532.37
2019-04-11T22:52:27.993Z,100536.09
2019-04-11T22:55:00.818Z,100536.25
2019-04-11T22:57:32.903Z,100540.34
2019-04-11T23:00:06.826Z,100535.80
2019-04-11T23:03:08.238Z,100536.58
2019-04-11T23:05:46.762Z,100537.67
2019-04-11T23:08:19.347Z,100538.55
2019-04-11T23:10:52.845Z,100531.95
2019-04-11T23:13:24.938Z,100531.82
2019-04-11T23:15:57.312Z,100531.95
2019-04-11T23:18:29.275Z,100525.95
2019-04-11T23:21:01.307Z,100525.67
2019-04-11T23:23:33.278Z,100524.66
2019-04-11T23:26:05.320Z,100523.73
2019-04-11T23:28:37.260Z,100527.93
2019-04-11T23:31:12.256Z,100530.30
2019-04-11T23:33:44.182Z,100528.08
2019-04-11T23:36:16.247Z,100528.64
2019-04-11T23:38:48.171Z,100521.06
2019-04-11T23:41:21.432Z,100522.44
2019-04-11T23:43:53.485Z,100521.31
2019-04-11T23:46:25.424Z,100516.16
2019-04-11T23:48:57.582Z,100523.30
2019-04-11T23:51:29.549Z,100523.41
2019-04-11T23:54:02.579Z,100522.92
2019-04-11T23:56:34.577Z,100529.42
2019-04-11T23:59:06.580Z,100527.00
